createdAt,value
2023-05-10T00:00:36.569Z,37.65
2023-05-10T00:01:36.694Z,37.68
2023-05-10T00:02:36.806Z,37.72
2023-05-10T00:03:36.792Z,37.76
2023-05-10T00:04:36.693Z,37.78
2023-05-10T00:05:36.737Z,37.78
2023-05-10T00:06:36.792Z,37.83
2023-05-10T00:07:36.822Z,37.88
2023-05-10T00:08:36.851Z,37.91
2023-05-10T00:09:36.867Z,37.93
2023-05-10T00:10:36.922Z,37.96
2023-05-10T00:11:36.968Z,38.02
2023-05-10T00:12:36.955Z,38.01
2023-05-10T00:13:37.750Z,38.00
2023-05-10T00:14:37.149Z,38.06
2023-05-10T00:15:37.097Z,38.15
2023-05-10T00:16:37.134Z,38.13
2023-05-10T00:17:37.160Z,38.14
2023-05-10T00:18:37.202Z,38.22
2023-05-10T00:19:37.210Z,38.17
2023-05-10T00:20:37.254Z,38.24
2023-05-10T00:21:37.298Z,38.30
2023-05-10T00:22:37.326Z,38.35
2023-05-10T00:23:37.374Z,38.31
2023-05-10T00:24:37.413Z,38.35
2023-05-10T00:25:37.458Z,38.37
2023-05-10T00:26:37.461Z,38.39
2023-05-10T00:27:37.528Z,38.42
2023-05-10T00:28:37.547Z,38.42
2023-05-10T00:29:37.592Z,38.44
2023-05-10T00:30:37.594Z,38.46
2023-05-10T00:31:37.709Z,38.49
2023-05-10T00:32:37.718Z,38.46
2023-05-10T00:33:37.611Z,38.52
2023-05-10T00:34:37.623Z,38.50
2023-05-10T00:35:37.677Z,38.51
2023-05-10T00:36:37.682Z,38.52
2023-05-10T00:37:37.733Z,38.57
2023-05-10T00:38:37.767Z,38.56
2023-05-10T00:39:37.785Z,38.58
2023-05-10T00:40:37.849Z,38.58
2023-05-10T00:41:37.897Z,38.60
2023-05-10T00:42:37.914Z,38.59
2023-05-10T00:43:37.972Z,38.65
2023-05-10T00:44:37.983Z,38.69
2023-05-10T00:45:37.998Z,38.65
2023-05-10T00:46:38.077Z,38.67
2023-05-10T00:47:38.121Z,38.69
2023-05-10T00:48:38.087Z,38.70
2023-05-10T00:49:38.163Z,38.71
2023-05-10T00:50:38.147Z,38.79
2023-05-10T00:51:38.168Z,38.77
2023-05-10T00:52:38.219Z,38.74
2023-05-10T00:53:38.230Z,38.82
2023-05-10T00:54:38.309Z,38.82
2023-05-10T00:55:38.340Z,38.81
2023-05-10T00:56:38.364Z,38.85
2023-05-10T00:57:38.401Z,38.84
2023-05-10T00:58:38.414Z,38.88
2023-05-10T00:59:38.475Z,38.86
2023-05-10T01:00:38.481Z,38.86
2023-05-10T01:01:38.559Z,38.90
2023-05-10T01:02:38.669Z,38.85
2023-05-10T01:03:38.628Z,38.88
2023-05-10T01:04:38.649Z,38.95
2023-05-10T01:05:38.664Z,38.96
2023-05-10T01:06:38.676Z,39.00
2023-05-10T01:07:38.774Z,38.99
2023-05-10T01:08:38.787Z,39.03
2023-05-10T01:09:38.849Z,39.00
2023-05-10T01:10:38.828Z,38.99
2023-05-10T01:11:38.822Z,39.04
2023-05-10T01:12:38.906Z,39.03
2023-05-10T01:13:38.886Z,39.07
2023-05-10T01:14:38.929Z,39.10
2023-05-10T01:15:38.980Z,39.09
2023-05-10T01:16:38.993Z,39.10
2023-05-10T01:17:39.038Z,39.14
2023-05-10T01:18:39.069Z,39.12
2023-05-10T01:19:39.097Z,39.18
2023-05-10T01:20:39.154Z,39.20
2023-05-10T01:21:39.134Z,39.18
2023-05-10T01:22:39.163Z,39.23
2023-05-10T01:23:39.212Z,39.26
2023-05-10T01:24:39.234Z,39.26
2023-05-10T01:25:39.277Z,39.27
2023-05-10T01:26:39.294Z,39.26
2023-05-10T01:27:39.375Z,39.27
2023-05-10T01:28:39.369Z,39.25
2023-05-10T01:29:39.423Z,39.24
2023-05-10T01:30:39.467Z,39.27
2023-05-10T01:31:39.501Z,39.29
2023-05-10T01:32:39.546Z,39.32
2023-05-10T01:33:39.557Z,39.33
2023-05-10T01:34:39.589Z,39.38
2023-05-10T01:35:39.627Z,39.38
2023-05-10T01:36:39.650Z,39.40
2023-05-10T01:37:39.701Z,39.43
2023-05-10T01:38:39.691Z,39.39
2023-05-10T01:39:39.782Z,39.44
2023-05-10T01:40:39.751Z,39.43
2023-05-10T01:41:39.799Z,39.46
2023-05-10T01:42:39.859Z,39.45
2023-05-10T01:43:39.856Z,39.46
2023-05-10T01:44:39.908Z,39.46
2023-05-10T01:45:39.937Z,39.46
2023-05-10T01:46:39.995Z,39.49
2023-05-10T01:47:40.060Z,39.48
2023-05-10T01:48:40.033Z,39.50
2023-05-10T01:49:40.055Z,39.53
2023-05-10T01:50:40.135Z,39.54
2023-05-10T01:51:40.159Z,39.55
2023-05-10T01:52:40.209Z,39.52
2023-05-10T01:53:40.236Z,39.55
2023-05-10T01:54:40.252Z,39.57
2023-05-10T01:55:40.291Z,39.55
2023-05-10T01:56:40.328Z,39.57
2023-05-10T01:57:40.351Z,39.57
2023-05-10T01:58:40.371Z,39.60
2023-05-10T01:59:40.411Z,39.64
2023-05-10T02:00:40.459Z,39.62
2023-05-10T02:01:40.454Z,39.60
2023-05-10T02:02:40.509Z,39.63
2023-05-10T02:03:40.603Z,39.62
2023-05-10T02:04:40.567Z,39.63
2023-05-10T02:05:40.586Z,39.68
2023-05-10T02:06:40.613Z,39.65
2023-05-10T02:07:40.636Z,39.65
2023-05-10T02:08:40.649Z,39.67
2023-05-10T02:09:40.684Z,39.70
2023-05-10T02:10:40.699Z,39.69
2023-05-10T02:11:40.763Z,39.70
2023-05-10T02:12:40.809Z,39.70
2023-05-10T02:13:40.825Z,39.73
2023-05-10T02:14:40.843Z,39.71
2023-05-10T02:15:40.869Z,39.76
2023-05-10T02:16:40.938Z,39.76
2023-05-10T02:17:40.999Z,39.78
2023-05-10T02:18:40.952Z,39.77
2023-05-10T02:19:40.959Z,39.80
2023-05-10T02:20:41.031Z,39.82
2023-05-10T02:21:41.033Z,39.83
2023-05-10T02:22:41.051Z,39.82
2023-05-10T02:23:41.093Z,39.80
2023-05-10T02:24:41.136Z,39.79
2023-05-10T02:25:41.170Z,39.82
2023-05-10T02:26:41.226Z,39.81
2023-05-10T02:27:41.246Z,39.86
2023-05-10T02:28:41.269Z,39.87
2023-05-10T02:29:41.291Z,39.89
2023-05-10T02:30:41.319Z,39.91
2023-05-10T02:31:41.375Z,39.91
2023-05-10T02:32:41.418Z,39.89
2023-05-10T02:33:41.408Z,39.92
2023-05-10T02:34:41.429Z,39.92
2023-05-10T02:35:41.497Z,39.92
2023-05-10T02:36:41.500Z,39.89
2023-05-10T02:37:41.535Z,39.90
2023-05-10T02:38:41.548Z,39.92
2023-05-10T02:39:41.622Z,39.91
2023-05-10T02:40:41.625Z,39.89
2023-05-10T02:41:41.676Z,39.91
2023-05-10T02:42:41.671Z,39.90
2023-05-10T02:43:42.308Z,39.90
2023-05-10T02:44:41.743Z,39.92
2023-05-10T02:45:41.863Z,39.90
2023-05-10T02:46:41.759Z,39.91
2023-05-10T02:47:41.840Z,39.91
2023-05-10T02:48:41.831Z,39.92
2023-05-10T02:49:41.863Z,39.93
2023-05-10T02:50:41.913Z,39.92
2023-05-10T02:51:41.947Z,39.91
2023-05-10T02:52:42.017Z,39.94
2023-05-10T02:53:42.006Z,39.90
2023-05-10T02:54:42.039Z,39.93
2023-05-10T02:55:42.079Z,39.97
2023-05-10T02:56:42.092Z,39.93
2023-05-10T02:57:42.147Z,39.96
2023-05-10T02:58:42.160Z,39.95
2023-05-10T02:59:42.178Z,39.95
2023-05-10T03:00:42.202Z,39.94
2023-05-10T03:01:42.237Z,39.93
2023-05-10T03:02:42.293Z,39.96
2023-05-10T03:03:42.308Z,39.98
2023-05-10T03:04:42.339Z,39.97
2023-05-10T03:05:42.344Z,39.97
2023-05-10T03:06:42.365Z,39.96
2023-05-10T03:07:42.376Z,39.96
2023-05-10T03:08:42.402Z,39.97
2023-05-10T03:09:42.434Z,40.00
2023-05-10T03:10:42.446Z,39.99
2023-05-10T03:11:42.484Z,40.02
2023-05-10T03:12:42.556Z,40.04
2023-05-10T03:13:42.536Z,40.03
2023-05-10T03:14:42.540Z,40.05
2023-05-10T03:15:42.640Z,40.06
2023-05-10T03:16:44.746Z,40.04
2023-05-10T03:17:42.664Z,40.03
2023-05-10T03:18:42.662Z,40.02
2023-05-10T03:19:42.675Z,40.06
2023-05-10T03:20:42.716Z,40.07
2023-05-10T03:21:42.769Z,40.10
2023-05-10T03:22:42.784Z,40.11
2023-05-10T03:23:42.843Z,40.07
2023-05-10T03:24:42.865Z,40.09
2023-05-10T03:25:42.868Z,40.08
2023-05-10T03:26:42.909Z,40.10
2023-05-10T03:27:42.941Z,40.13
2023-05-10T03:28:42.958Z,40.14
2023-05-10T03:29:42.981Z,40.13
2023-05-10T03:30:43.000Z,40.12
2023-05-10T03:31:43.172Z,40.14
2023-05-10T03:32:43.205Z,40.15
2023-05-10T03:33:43.089Z,40.15
2023-05-10T03:34:43.119Z,40.17
2023-05-10T03:35:43.132Z,40.17
2023-05-10T03:36:43.159Z,40.17
2023-05-10T03:37:43.213Z,40.14
2023-05-10T03:38:43.216Z,40.20
2023-05-10T03:39:43.227Z,40.20
2023-05-10T03:40:43.268Z,40.17
2023-05-10T03:41:43.308Z,40.16
2023-05-10T03:42:43.325Z,40.18
2023-05-10T03:43:43.398Z,40.18
2023-05-10T03:44:43.347Z,40.22
2023-05-10T03:45:43.393Z,40.23
2023-05-10T03:46:43.458Z,40.20
2023-05-10T03:47:43.497Z,40.18
2023-05-10T03:48:43.471Z,40.20
2023-05-10T03:49:43.488Z,40.21
2023-05-10T03:50:43.484Z,40.21
2023-05-10T03:51:43.566Z,40.19
2023-05-10T03:52:43.602Z,40.20
2023-05-10T03:53:43.611Z,40.19
2023-05-10T03:54:43.630Z,40.20
2023-05-10T03:55:43.620Z,40.22
2023-05-10T03:56:43.685Z,40.21
2023-05-10T03:57:43.687Z,40.20
2023-05-10T03:58:43.749Z,40.22
2023-05-10T03:59:43.770Z,40.23
2023-05-10T04:00:43.778Z,40.17
2023-05-10T04:01:43.887Z,40.21
2023-05-10T04:02:44.635Z,40.19
2023-05-10T04:03:43.964Z,40.21
2023-05-10T04:04:43.900Z,40.20
2023-05-10T04:05:43.902Z,40.18
2023-05-10T04:06:44.010Z,40.16
2023-05-10T04:07:43.973Z,40.16
2023-05-10T04:08:44.028Z,40.19
2023-05-10T04:09:44.048Z,40.15
2023-05-10T04:10:44.061Z,40.15
2023-05-10T04:11:44.102Z,40.15
2023-05-10T04:12:44.142Z,40.15
2023-05-10T04:13:44.177Z,40.13
2023-05-10T04:14:44.170Z,40.14
2023-05-10T04:15:44.179Z,40.14
2023-05-10T04:16:44.293Z,40.10
2023-05-10T04:17:44.309Z,40.12
2023-05-10T04:18:44.286Z,40.12
2023-05-10T04:19:44.311Z,40.12
2023-05-10T04:20:44.323Z,40.14
2023-05-10T04:21:44.368Z,40.13
2023-05-10T04:22:44.407Z,40.13
2023-05-10T04:23:44.424Z,40.15
2023-05-10T04:24:44.429Z,40.16
2023-05-10T04:25:44.485Z,40.14
2023-05-10T04:26:44.536Z,40.13
2023-05-10T04:27:44.538Z,40.10
2023-05-10T04:28:44.594Z,40.12
2023-05-10T04:29:44.590Z,40.13
2023-05-10T04:30:44.681Z,40.14
2023-05-10T04:31:44.649Z,40.13
2023-05-10T04:32:44.704Z,40.15
2023-05-10T04:33:44.679Z,40.14
2023-05-10T04:34:44.724Z,40.13
2023-05-10T04:35:44.775Z,40.17
2023-05-10T04:36:44.788Z,40.15
2023-05-10T04:37:44.792Z,40.15
2023-05-10T04:38:44.830Z,40.14
2023-05-10T04:39:44.884Z,40.13
2023-05-10T04:40:44.895Z,40.11
2023-05-10T04:41:44.908Z,40.10
2023-05-10T04:42:44.984Z,40.10
2023-05-10T04:43:44.994Z,40.10
2023-05-10T04:44:45.013Z,40.10
2023-05-10T04:45:45.023Z,40.08
2023-05-10T04:46:45.090Z,40.06
2023-05-10T04:47:45.099Z,40.08
2023-05-10T04:48:45.115Z,40.08
2023-05-10T04:49:45.143Z,40.09
2023-05-10T04:50:45.170Z,40.07
2023-05-10T04:51:45.197Z,40.07
2023-05-10T04:52:45.234Z,40.06
2023-05-10T04:53:54.167Z,40.08
2023-05-10T04:54:46.240Z,40.11
2023-05-10T04:55:45.219Z,40.10
2023-05-10T04:56:45.237Z,40.10
2023-05-10T04:57:45.888Z,40.09
2023-05-10T04:58:45.188Z,40.11
2023-05-10T04:59:45.230Z,40.10
2023-05-10T05:00:52.752Z,40.11
2023-05-10T05:01:45.232Z,40.09
2023-05-10T05:02:45.343Z,40.09
2023-05-10T05:03:45.311Z,40.10
2023-05-10T05:04:45.197Z,40.08
2023-05-10T05:05:45.146Z,40.10
2023-05-10T05:06:45.181Z,40.06
2023-05-10T05:07:45.131Z,40.07
2023-05-10T05:08:45.166Z,40.06
2023-05-10T05:09:45.149Z,40.05
2023-05-10T05:10:45.132Z,39.97
2023-05-10T05:11:45.123Z,39.99
2023-05-10T05:12:45.172Z,39.96
2023-05-10T05:13:45.144Z,39.95
2023-05-10T05:14:45.092Z,39.96
2023-05-10T05:15:45.091Z,39.93
2023-05-10T05:16:45.194Z,39.94
2023-05-10T05:17:45.154Z,39.91
2023-05-10T05:18:45.106Z,39.90
2023-05-10T05:19:45.084Z,39.88
2023-05-10T05:20:45.105Z,39.92
2023-05-10T05:21:45.074Z,40.19
2023-05-10T05:22:45.073Z,40.50
2023-05-10T05:23:45.049Z,40.78
2023-05-10T05:24:45.032Z,41.11
2023-05-10T05:26:50.799Z,41.74
2023-05-10T05:27:50.768Z,41.88
2023-05-10T05:28:50.808Z,42.06
2023-05-10T05:29:50.776Z,42.36
2023-05-10T05:30:50.782Z,42.56
2023-05-10T05:31:51.046Z,43.02
2023-05-10T05:32:50.800Z,43.15
2023-05-10T05:33:50.982Z,43.32
2023-05-10T05:34:50.738Z,43.83
2023-05-10T05:35:50.732Z,43.76
2023-05-10T05:36:50.740Z,43.96
2023-05-10T05:37:50.728Z,43.99
2023-05-10T05:38:50.973Z,43.97
2023-05-10T05:39:50.716Z,44.11
2023-05-10T05:40:50.696Z,44.63
2023-05-10T05:41:50.724Z,44.26
2023-05-10T05:42:50.703Z,45.38
2023-05-10T05:43:50.964Z,45.60
2023-05-10T05:44:50.677Z,45.25
2023-05-10T05:45:57.712Z,46.38
2023-05-10T05:46:50.692Z,45.63
2023-05-10T05:47:50.721Z,45.87
2023-05-10T05:48:51.004Z,46.55
2023-05-10T05:49:50.637Z,46.55
2023-05-10T05:50:50.653Z,46.24
2023-05-10T05:51:50.655Z,45.69
2023-05-10T05:52:50.640Z,45.91
2023-05-10T05:53:50.973Z,45.80
2023-05-10T05:54:50.665Z,45.56
2023-05-10T05:55:50.598Z,45.48
2023-05-10T05:56:50.597Z,45.06
2023-05-10T05:57:50.557Z,45.28
2023-05-10T05:58:50.599Z,45.23
2023-05-10T05:59:50.599Z,44.89
2023-05-10T06:00:50.593Z,44.06
2023-05-10T06:01:50.585Z,43.69
2023-05-10T06:02:50.619Z,43.50
2023-05-10T06:03:53.168Z,43.33
2023-05-10T06:04:50.987Z,43.96
2023-05-10T06:05:50.545Z,43.42
2023-05-10T06:06:50.547Z,43.79
2023-05-10T06:07:50.558Z,44.65
2023-05-10T06:08:50.510Z,44.11
2023-05-10T06:09:50.524Z,44.25
2023-05-10T06:10:50.535Z,43.77
2023-05-10T06:11:50.545Z,44.73
2023-05-10T06:12:50.539Z,44.28
2023-05-10T06:13:50.489Z,44.22
2023-05-10T06:14:50.507Z,43.72
2023-05-10T06:15:50.484Z,44.11
2023-05-10T06:16:50.507Z,43.99
2023-05-10T06:17:50.493Z,44.11
2023-05-10T06:18:50.458Z,44.11
2023-05-10T06:19:50.491Z,43.82
2023-05-10T06:20:50.445Z,43.62
2023-05-10T06:21:53.111Z,43.64
2023-05-10T06:22:50.476Z,43.90
2023-05-10T06:23:50.485Z,43.52
2023-05-10T06:24:50.439Z,43.80
2023-05-10T06:25:50.407Z,44.14
2023-05-10T06:26:50.403Z,43.56
2023-05-10T06:27:53.787Z,43.47
2023-05-10T06:28:50.393Z,44.07
2023-05-10T06:29:52.234Z,43.43
2023-05-10T06:30:51.386Z,44.03
2023-05-10T06:31:50.450Z,43.58
2023-05-10T06:32:50.401Z,43.30
2023-05-10T06:33:50.393Z,45.28
2023-05-10T06:34:50.333Z,44.81
2023-05-10T06:35:50.311Z,43.59
2023-05-10T06:36:50.357Z,43.67
2023-05-10T06:37:50.352Z,41.92
2023-05-10T06:38:50.337Z,41.53
2023-05-10T06:39:50.383Z,40.69
2023-05-10T06:40:50.391Z,41.48
2023-05-10T06:41:50.343Z,42.56
2023-05-10T06:42:50.354Z,43.49
2023-05-10T06:43:50.484Z,42.66
2023-05-10T06:44:50.371Z,42.76
2023-05-10T06:45:50.353Z,42.59
2023-05-10T06:46:50.587Z,42.52
2023-05-10T06:47:50.462Z,42.63
2023-05-10T06:48:50.509Z,42.53
2023-05-10T06:49:51.025Z,42.88
2023-05-10T06:50:50.630Z,42.94
2023-05-10T06:51:50.714Z,43.35
2023-05-10T06:52:52.376Z,43.37
2023-05-10T06:53:50.796Z,45.78
2023-05-10T06:54:50.875Z,43.36
2023-05-10T06:55:50.853Z,42.74
2023-05-10T06:56:50.899Z,42.82
2023-05-10T06:57:50.925Z,42.43
2023-05-10T06:58:50.988Z,42.82
2023-05-10T06:59:50.950Z,42.43
2023-05-10T07:00:50.974Z,42.46
2023-05-10T07:01:51.010Z,42.87
2023-05-10T07:02:51.044Z,42.31
2023-05-10T07:03:51.103Z,42.44
2023-05-10T07:04:51.271Z,43.06
2023-05-10T07:05:51.190Z,42.60
2023-05-10T07:06:51.217Z,42.88
2023-05-10T07:07:51.215Z,42.44
2023-05-10T07:08:51.222Z,42.77
2023-05-10T07:09:51.195Z,42.53
2023-05-10T07:10:51.225Z,42.61
2023-05-10T07:11:51.327Z,42.38
2023-05-10T07:12:51.483Z,41.97
2023-05-10T07:13:51.525Z,41.61
2023-05-10T07:14:52.048Z,41.11
2023-05-10T07:15:51.637Z,40.44
2023-05-10T07:16:51.638Z,40.58
2023-05-10T07:17:51.682Z,40.70
2023-05-10T07:18:51.640Z,41.05
2023-05-10T07:19:51.697Z,40.88
2023-05-10T07:20:51.730Z,40.80
2023-05-10T07:21:51.790Z,40.73
2023-05-10T07:22:51.794Z,40.71
2023-05-10T07:23:51.860Z,40.82
2023-05-10T07:24:51.831Z,40.97
2023-05-10T07:25:51.846Z,40.93
2023-05-10T07:26:51.823Z,41.14
2023-05-10T07:27:51.872Z,41.03
2023-05-10T07:28:51.872Z,41.09
2023-05-10T07:29:51.862Z,41.60
2023-05-10T07:30:51.917Z,41.78
2023-05-10T07:31:51.955Z,41.41
2023-05-10T07:32:51.952Z,42.31
2023-05-10T07:33:51.879Z,41.58
2023-05-10T07:34:51.892Z,41.66
2023-05-10T07:35:51.925Z,41.71
2023-05-10T07:36:51.908Z,42.06
2023-05-10T07:37:51.943Z,42.11
2023-05-10T07:38:51.940Z,41.96
2023-05-10T07:39:51.932Z,41.79
2023-05-10T07:40:51.954Z,41.75
2023-05-10T07:41:52.018Z,41.65
2023-05-10T07:42:51.967Z,41.58
2023-05-10T07:43:51.979Z,41.60
2023-05-10T07:44:52.056Z,41.80
2023-05-10T07:45:54.628Z,41.60
2023-05-10T07:46:52.056Z,41.44
2023-05-10T07:47:52.126Z,41.49
2023-05-10T07:48:52.063Z,41.30
2023-05-10T07:49:52.026Z,41.42
2023-05-10T07:50:52.004Z,41.36
2023-05-10T07:51:52.037Z,41.36
2023-05-10T07:52:51.989Z,41.36
2023-05-10T07:53:52.014Z,41.32
2023-05-10T07:54:52.028Z,41.32
2023-05-10T07:55:52.029Z,41.32
2023-05-10T07:56:51.978Z,41.21
2023-05-10T07:58:21.861Z,41.21
2023-05-10T07:59:21.826Z,41.16
2023-05-10T08:00:21.885Z,41.08
2023-05-10T08:01:21.849Z,40.99
2023-05-10T08:02:21.897Z,40.93
2023-05-10T08:03:21.859Z,40.90
2023-05-10T08:04:21.810Z,40.91
2023-05-10T08:05:21.821Z,40.87
2023-05-10T08:06:21.828Z,40.82
2023-05-10T08:07:22.510Z,40.83
2023-05-10T08:08:21.800Z,40.81
2023-05-10T08:09:21.802Z,40.75
2023-05-10T08:10:21.855Z,40.75
2023-05-10T08:11:21.811Z,40.77
2023-05-10T08:12:21.749Z,40.75
2023-05-10T08:13:21.770Z,40.70
2023-05-10T08:14:21.725Z,40.68
2023-05-10T08:15:21.734Z,40.67
2023-05-10T08:16:21.756Z,40.66
2023-05-10T08:17:22.844Z,40.67
2023-05-10T08:18:22.216Z,40.65
2023-05-10T08:19:21.720Z,40.62
2023-05-10T08:20:21.821Z,40.65
2023-05-10T08:21:21.711Z,40.64
2023-05-10T08:22:21.706Z,40.63
2023-05-10T08:23:21.679Z,40.61
2023-05-10T08:24:21.655Z,40.62
2023-05-10T08:25:21.660Z,40.60
2023-05-10T08:26:21.699Z,40.56
2023-05-10T08:27:21.663Z,40.55
2023-05-10T08:28:21.625Z,40.53
2023-05-10T08:29:21.628Z,40.53
2023-05-10T08:30:22.065Z,40.52
2023-05-10T08:31:21.671Z,40.52
2023-05-10T08:32:21.598Z,40.50
2023-05-10T08:33:21.616Z,40.50
2023-05-10T08:34:21.733Z,40.52
2023-05-10T08:35:22.060Z,40.51
2023-05-10T08:36:21.603Z,40.49
2023-05-10T08:37:21.550Z,40.51
2023-05-10T08:38:21.604Z,40.50
2023-05-10T08:39:29.900Z,40.53
2023-05-10T08:40:22.550Z,40.56
2023-05-10T08:41:21.546Z,40.57
2023-05-10T08:42:21.560Z,40.52
2023-05-10T08:43:21.524Z,40.51
2023-05-10T08:44:21.558Z,40.51
2023-05-10T08:45:21.499Z,40.50
2023-05-10T08:46:21.595Z,40.51
2023-05-10T08:47:21.492Z,40.51
2023-05-10T08:48:21.500Z,40.50
2023-05-10T08:49:21.514Z,40.44
2023-05-10T08:50:21.578Z,40.41
2023-05-10T08:51:21.466Z,40.41
2023-05-10T08:52:21.485Z,40.39
2023-05-10T08:53:21.524Z,40.40
2023-05-10T08:54:21.636Z,40.36
2023-05-10T08:55:21.587Z,40.34
2023-05-10T08:56:21.677Z,40.32
2023-05-10T08:57:21.707Z,40.34
2023-05-10T08:58:21.681Z,40.31
2023-05-10T08:59:21.689Z,40.29
2023-05-10T09:00:21.742Z,40.26
2023-05-10T09:01:21.809Z,40.28
2023-05-10T09:02:21.864Z,40.26
2023-05-10T09:03:21.967Z,40.23
2023-05-10T09:04:22.107Z,40.24
2023-05-10T09:05:22.179Z,40.22
2023-05-10T09:06:21.941Z,40.21
2023-05-10T09:07:22.085Z,40.18
2023-05-10T09:08:22.006Z,40.16
2023-05-10T09:09:22.070Z,40.14
2023-05-10T09:10:22.076Z,40.14
2023-05-10T09:11:22.089Z,40.14
2023-05-10T09:12:22.132Z,40.13
2023-05-10T09:13:22.254Z,40.12
2023-05-10T09:14:24.147Z,40.11
2023-05-10T09:15:22.261Z,40.09
2023-05-10T09:16:22.722Z,40.04
2023-05-10T09:17:22.501Z,40.00
2023-05-10T09:18:22.445Z,39.98
2023-05-10T09:19:22.392Z,39.94
2023-05-10T09:20:22.399Z,39.91
2023-05-10T09:21:22.479Z,39.91
2023-05-10T09:22:22.466Z,39.90
2023-05-10T09:23:22.544Z,39.90
2023-05-10T09:24:22.552Z,39.85
2023-05-10T09:25:22.635Z,39.84
2023-05-10T09:26:22.668Z,39.79
2023-05-10T09:27:22.685Z,39.79
2023-05-10T09:28:22.776Z,39.79
2023-05-10T09:29:22.787Z,39.77
2023-05-10T09:30:22.796Z,39.77
2023-05-10T09:31:23.368Z,39.76
2023-05-10T09:32:22.880Z,39.77
2023-05-10T09:33:22.946Z,39.78
2023-05-10T09:34:22.957Z,40.06
2023-05-10T09:35:22.999Z,40.44
2023-05-10T09:36:23.061Z,42.88
2023-05-10T09:37:23.116Z,41.20
2023-05-10T09:38:23.158Z,41.63
2023-05-10T09:39:23.187Z,41.73
2023-05-10T09:40:23.181Z,42.01
2023-05-10T09:41:23.566Z,42.21
2023-05-10T09:42:23.272Z,42.20
2023-05-10T09:43:23.238Z,42.78
2023-05-10T09:44:23.204Z,42.59
2023-05-10T09:45:23.193Z,42.78
2023-05-10T09:46:23.265Z,44.28
2023-05-10T09:47:23.318Z,43.50
2023-05-10T09:48:23.405Z,43.89
2023-05-10T09:49:23.396Z,44.19
2023-05-10T09:50:23.459Z,44.11
2023-05-10T09:51:23.577Z,44.73
2023-05-10T09:52:23.461Z,44.06
2023-05-10T09:53:23.530Z,44.77
2023-05-10T09:54:23.491Z,45.81
2023-05-10T09:55:23.478Z,45.24
2023-05-10T09:56:23.556Z,44.22
2023-05-10T09:57:23.528Z,45.36
2023-05-10T09:58:23.532Z,44.83
2023-05-10T09:59:24.093Z,45.10
2023-05-10T10:00:23.603Z,44.38
2023-05-10T10:01:23.661Z,44.35
2023-05-10T10:02:23.655Z,45.08
2023-05-10T10:03:23.728Z,44.19
2023-05-10T10:04:23.805Z,45.00
2023-05-10T10:05:23.837Z,45.57
2023-05-10T10:06:30.247Z,44.92
2023-05-10T10:07:24.915Z,45.32
2023-05-10T10:08:23.885Z,45.06
2023-05-10T10:09:23.906Z,45.33
2023-05-10T10:10:23.873Z,44.83
2023-05-10T10:11:24.067Z,45.06
2023-05-10T10:12:23.837Z,45.43
2023-05-10T10:13:23.834Z,45.00
2023-05-10T10:14:23.820Z,44.74
2023-05-10T10:15:23.854Z,44.73
2023-05-10T10:16:24.165Z,44.81
2023-05-10T10:17:23.875Z,44.81
2023-05-10T10:18:23.794Z,44.69
2023-05-10T10:19:23.842Z,44.68
2023-05-10T10:20:23.854Z,44.80
2023-05-10T10:21:23.897Z,45.28
2023-05-10T10:22:23.913Z,44.78
2023-05-10T10:23:23.970Z,45.00
2023-05-10T10:24:23.955Z,44.89
2023-05-10T10:25:23.990Z,45.24
2023-05-10T10:26:24.061Z,45.47
2023-05-10T10:27:24.053Z,44.83
2023-05-10T10:28:25.400Z,44.64
2023-05-10T10:29:24.065Z,44.89
2023-05-10T10:30:24.061Z,44.66
2023-05-10T10:31:24.135Z,44.72
2023-05-10T10:32:24.103Z,43.14
2023-05-10T10:33:28.472Z,43.95
2023-05-10T10:34:25.016Z,43.53
2023-05-10T10:35:24.083Z,42.95
2023-05-10T10:36:24.098Z,41.63
2023-05-10T10:37:24.063Z,40.78
2023-05-10T10:38:24.006Z,40.71
2023-05-10T10:39:23.998Z,40.79
2023-05-10T10:40:23.946Z,40.84
2023-05-10T10:41:24.103Z,40.66
2023-05-10T10:42:23.998Z,40.83
2023-05-10T10:43:23.982Z,41.11
2023-05-10T10:44:23.968Z,41.25
2023-05-10T10:45:23.941Z,41.29
2023-05-10T10:46:24.178Z,41.14
2023-05-10T10:47:24.154Z,40.95
2023-05-10T10:48:23.960Z,40.86
2023-05-10T10:49:24.062Z,40.60
2023-05-10T10:50:23.963Z,40.41
2023-05-10T10:51:23.954Z,40.33
2023-05-10T10:52:23.950Z,40.37
2023-05-10T10:53:23.930Z,40.15
2023-05-10T10:54:23.949Z,40.08
2023-05-10T10:55:23.975Z,40.13
2023-05-10T10:56:23.958Z,40.19
2023-05-10T10:57:24.131Z,40.23
2023-05-10T10:58:24.017Z,40.18
2023-05-10T10:59:24.058Z,40.17
2023-05-10T11:00:24.095Z,39.89
2023-05-10T11:01:24.113Z,39.92
2023-05-10T11:02:24.160Z,39.94
2023-05-10T11:03:24.116Z,39.84
2023-05-10T11:04:24.217Z,39.82
2023-05-10T11:05:24.190Z,39.86
2023-05-10T11:06:24.195Z,39.80
2023-05-10T11:07:24.606Z,39.90
2023-05-10T11:08:24.276Z,39.89
2023-05-10T11:09:24.290Z,39.95
2023-05-10T11:10:24.287Z,39.85
2023-05-10T11:11:24.296Z,39.40
2023-05-10T11:12:24.333Z,39.31
2023-05-10T11:13:24.376Z,39.45
2023-05-10T11:14:24.390Z,39.18
2023-05-10T11:15:24.474Z,39.11
2023-05-10T11:16:24.887Z,39.12
2023-05-10T11:17:24.586Z,39.13
2023-05-10T11:18:24.718Z,39.17
2023-05-10T11:19:24.547Z,39.47
2023-05-10T11:20:24.580Z,39.57
2023-05-10T11:21:24.583Z,39.81
2023-05-10T11:22:24.622Z,39.67
2023-05-10T11:23:24.743Z,39.50
2023-05-10T11:24:24.726Z,39.58
2023-05-10T11:25:24.740Z,39.92
2023-05-10T11:26:24.849Z,39.86
2023-05-10T11:27:25.115Z,40.71
2023-05-10T11:28:24.916Z,40.80
2023-05-10T11:29:25.281Z,41.07
2023-05-10T11:30:25.164Z,41.34
2023-05-10T11:31:25.187Z,41.40
2023-05-10T11:32:25.184Z,41.33
2023-05-10T11:33:25.131Z,41.29
2023-05-10T11:34:25.151Z,41.22
2023-05-10T11:35:25.189Z,41.26
2023-05-10T11:36:25.203Z,41.26
2023-05-10T11:37:25.611Z,41.12
2023-05-10T11:38:25.247Z,40.91
2023-05-10T11:39:25.209Z,40.81
2023-05-10T11:40:25.242Z,40.74
2023-05-10T11:41:25.274Z,40.77
2023-05-10T11:42:25.621Z,40.74
2023-05-10T11:43:25.311Z,40.74
2023-05-10T11:44:25.314Z,40.75
2023-05-10T11:45:25.381Z,40.72
2023-05-10T11:46:25.449Z,40.68
2023-05-10T11:47:25.433Z,40.61
2023-05-10T11:48:25.392Z,40.54
2023-05-10T11:49:25.383Z,40.51
2023-05-10T11:50:25.401Z,40.29
2023-05-10T11:51:25.410Z,40.28
2023-05-10T11:52:25.411Z,40.31
2023-05-10T11:53:25.918Z,40.03
2023-05-10T11:54:25.445Z,40.11
2023-05-10T11:55:25.406Z,40.10
2023-05-10T11:56:25.430Z,40.02
2023-05-10T11:57:25.457Z,39.82
2023-05-10T11:58:25.449Z,39.68
2023-05-10T11:59:25.473Z,39.51
2023-05-10T12:00:25.542Z,39.37
2023-05-10T12:01:25.499Z,39.26
2023-05-10T12:02:25.612Z,39.31
2023-05-10T12:03:25.627Z,39.11
2023-05-10T12:04:25.539Z,39.01
2023-05-10T12:05:25.571Z,39.09
2023-05-10T12:06:25.555Z,39.04
2023-05-10T12:07:25.621Z,39.00
2023-05-10T12:08:25.623Z,39.20
2023-05-10T12:09:39.564Z,39.43
2023-05-10T12:10:26.579Z,39.80
2023-05-10T12:11:25.596Z,40.04
2023-05-10T12:12:25.610Z,40.11
2023-05-10T12:13:25.583Z,40.26
2023-05-10T12:14:25.586Z,40.36
2023-05-10T12:15:25.589Z,40.39
2023-05-10T12:16:25.594Z,41.21
2023-05-10T12:17:25.595Z,42.72
2023-05-10T12:18:25.564Z,41.58
2023-05-10T12:19:25.568Z,42.68
2023-05-10T12:20:25.518Z,43.32
2023-05-10T12:21:25.552Z,43.55
2023-05-10T12:22:25.537Z,43.77
2023-05-10T12:23:25.525Z,44.87
2023-05-10T12:24:25.528Z,44.54
2023-05-10T12:25:25.492Z,44.34
2023-05-10T12:26:25.551Z,44.41
2023-05-10T12:27:25.489Z,44.76
2023-05-10T12:28:25.476Z,44.66
2023-05-10T12:29:25.481Z,44.71
2023-05-10T12:30:25.480Z,44.58
2023-05-10T12:31:25.479Z,44.57
2023-05-10T12:32:25.499Z,44.38
2023-05-10T12:33:25.496Z,44.32
2023-05-10T12:34:25.540Z,44.26
2023-05-10T12:35:25.557Z,43.95
2023-05-10T12:36:25.621Z,43.65
2023-05-10T12:37:25.693Z,43.64
2023-05-10T12:38:25.686Z,43.38
2023-05-10T12:39:25.791Z,43.34
2023-05-10T12:40:25.797Z,43.21
2023-05-10T12:41:25.917Z,43.11
2023-05-10T12:42:25.931Z,43.11
2023-05-10T12:43:26.037Z,43.10
2023-05-10T12:44:26.066Z,43.08
2023-05-10T12:45:26.100Z,42.98
2023-05-10T12:46:26.320Z,42.94
2023-05-10T12:47:26.261Z,42.91
2023-05-10T12:48:26.330Z,42.88
2023-05-10T12:49:27.149Z,42.86
2023-05-10T12:50:26.444Z,42.82
2023-05-10T12:51:26.505Z,42.77
2023-05-10T12:52:26.543Z,42.80
2023-05-10T12:53:26.662Z,42.77
2023-05-10T12:54:26.660Z,42.73